Poplar Municipal (PO1)
Poplar, MT
Field Elevation: 2037
Lat: 48°08.07N  Long: 105°09.73W
CTAF/Unicom Freq: 122.8000
   
    
Weather Advisories
2021-06-16   17:42 Z
Altimeter 30.07" Hg
Wind 290° @ 20 KT
Gusts 28 KT
Visibility 10 SM
Temperature 23° C (73° F)
Dewpoint 4° C (39° F)
Relative Humidity 28%
Density Altitude 3,300 feet
Condensation Altitude 11,800 feet
Wind and Runways
Indicated Runway = 27
Headwind = 19 kt
Crosswind = 7 kt
History
 
 
 
More Info
All DigiWx sites map
NOAA Forecast
 
Airport IQ 5010
(M46) Colstrip, MT
(6S5) Ravalli County
 
about DigiWx
 
FAA Disclaimer: The data displayed is for advisory purposes only and is not to be used for flight planning or operations. For official data, please call (not available) to hear the current automated AWOS voice message.
  METAR PO1 161742Z AUTO 29020G28KT 10 SM 23/04 A3007